sensor_id;sensor_type;location;lat;lon;timestamp;pressure;altitude;pressure_sealevel;temperature;humidity
74431;BME280;62863;52.062;23.764;2023-12-28T00:01:47;1029.9;;;0.1;75.6
74431;BME280;62863;52.062;23.764;2023-12-28T00:07:19;1029.9;;;0.1;75.9
74431;BME280;62863;52.062;23.764;2023-12-28T00:11:53;1029.8;;;0.1;76.1
74431;BME280;62863;52.062;23.764;2023-12-28T00:16:57;1029.7;;;0.2;76.5
74431;BME280;62863;52.062;23.764;2023-12-28T00:21:57;1029.9;;;0.3;76.3
74431;BME280;62863;52.062;23.764;2023-12-28T00:27:21;1030.1;;;0.4;76.4
74431;BME280;62863;52.062;23.764;2023-12-28T00:32:17;1030.2;;;0.5;76.1
74431;BME280;62863;52.062;23.764;2023-12-28T00:36:57;1030.3;;;0.6;75.5
74431;BME280;62863;52.062;23.764;2023-12-28T00:41:57;1030.1;;;0.8;75.1
74431;BME280;62863;52.062;23.764;2023-12-28T00:47:17;1029.9;;;0.8;74.6
74431;BME280;62863;52.062;23.764;2023-12-28T00:52:21;1030;;;0.9;74.5
74431;BME280;62863;52.062;23.764;2023-12-28T00:56:37;1029.6;;;0.9;74.7
74431;BME280;62863;52.062;23.764;2023-12-28T01:02:21;1029.3;;;1;75
74431;BME280;62863;52.062;23.764;2023-12-28T01:07:07;1029.2;;;1;75.1
74431;BME280;62863;52.062;23.764;2023-12-28T01:12:03;1029.5;;;1;75.3
74431;BME280;62863;52.062;23.764;2023-12-28T01:16:37;1029.6;;;1.1;75.4
74431;BME280;62863;52.062;23.764;2023-12-28T01:21:57;1029.5;;;1.2;75.5
74431;BME280;62863;52.062;23.764;2023-12-28T01:27:17;1029.5;;;1.2;75.3
74431;BME280;62863;52.062;23.764;2023-12-28T01:31:55;1029.4;;;1.3;74.8
74431;BME280;62863;52.062;23.764;2023-12-28T01:36:37;1029.3;;;1.3;74.4
74431;BME280;62863;52.062;23.764;2023-12-28T01:42:21;1029.4;;;1.3;74.5
74431;BME280;62863;52.062;23.764;2023-12-28T01:46:57;1029.5;;;1.4;74.5
74431;BME280;62863;52.062;23.764;2023-12-28T01:51:37;1029.3;;;1.4;74.5
74431;BME280;62863;52.062;23.764;2023-12-28T01:56:37;1029.4;;;1.4;75.1
74431;BME280;62863;52.062;23.764;2023-12-28T02:02:07;1029.5;;;1.5;75.1
74431;BME280;62863;52.062;23.764;2023-12-28T02:06:37;1029.4;;;1.5;74.8
74431;BME280;62863;52.062;23.764;2023-12-28T02:11:47;1029.3;;;1.4;74.5
74431;BME280;62863;52.062;23.764;2023-12-28T02:17:19;1029.2;;;1.4;74.8
74431;BME280;62863;52.062;23.764;2023-12-28T02:22:07;1029.1;;;1.4;74.8
74431;BME280;62863;52.062;23.764;2023-12-28T02:26:51;1028.9;;;1.3;74.4
74431;BME280;62863;52.062;23.764;2023-12-28T02:31:39;1028.8;;;1.3;74.3
74431;BME280;62863;52.062;23.764;2023-12-28T02:36:59;1028.7;;;1.3;74.2
74431;BME280;62863;52.062;23.764;2023-12-28T02:41:37;1028.6;;;1.2;74.3
74431;BME280;62863;52.062;23.764;2023-12-28T02:47:17;1028.6;;;1.2;74.5
74431;BME280;62863;52.062;23.764;2023-12-28T02:51:57;1028.6;;;1.2;74.8
74431;BME280;62863;52.062;23.764;2023-12-28T02:56:57;1028.4;;;1.2;75
74431;BME280;62863;52.062;23.764;2023-12-28T03:02:21;1028.5;;;1.2;75.2
74431;BME280;62863;52.062;23.764;2023-12-28T03:07:09;1028.6;;;1.3;75.4
74431;BME280;62863;52.062;23.764;2023-12-28T03:11:37;1028.6;;;1.4;75.1
74431;BME280;62863;52.062;23.764;2023-12-28T03:17:09;1028.7;;;1.4;74.9
74431;BME280;62863;52.062;23.764;2023-12-28T03:22:21;1028.7;;;1.4;74.8
74431;BME280;62863;52.062;23.764;2023-12-28T03:27:19;1028.5;;;1.4;74.6
74431;BME280;62863;52.062;23.764;2023-12-28T03:32:21;1028.5;;;1.4;74.6
74431;BME280;62863;52.062;23.764;2023-12-28T03:37:07;1028.4;;;1.4;74.6
74431;BME280;62863;52.062;23.764;2023-12-28T03:41:37;1028.3;;;1.4;74.5
74431;BME280;62863;52.062;23.764;2023-12-28T03:46:37;1028.2;;;1.4;74.6
74431;BME280;62863;52.062;23.764;2023-12-28T03:51:49;1028.2;;;1.3;75.1
74431;BME280;62863;52.062;23.764;2023-12-28T03:57:17;1028.2;;;1.3;75.3
74431;BME280;62863;52.062;23.764;2023-12-28T04:02:07;1028.2;;;1.3;75.4
74431;BME280;62863;52.062;23.764;2023-12-28T04:07:11;1028.1;;;1.3;75.2
74431;BME280;62863;52.062;23.764;2023-12-28T04:12:21;1028;;;1.2;75.3
74431;BME280;62863;52.062;23.764;2023-12-28T04:17:07;1027.9;;;1.2;75.2
74431;BME280;62863;52.062;23.764;2023-12-28T04:21:57;1027.9;;;1.1;75.1
74431;BME280;62863;52.062;23.764;2023-12-28T04:27:01;1027.8;;;1.1;75.1
74431;BME280;62863;52.062;23.764;2023-12-28T04:32:17;1027.7;;;1;75.2
74431;BME280;62863;52.062;23.764;2023-12-28T04:37:03;1027.6;;;0.9;75.4
74431;BME280;62863;52.062;23.764;2023-12-28T04:41:39;1027.5;;;0.9;75.6
74431;BME280;62863;52.062;23.764;2023-12-28T04:46:57;1027.4;;;0.9;76
74431;BME280;62863;52.062;23.764;2023-12-28T04:51:41;1027.4;;;0.8;76.1
74431;BME280;62863;52.062;23.764;2023-12-28T04:57:21;1027.4;;;0.8;76.2
74431;BME280;62863;52.062;23.764;2023-12-28T05:02:03;1027.3;;;0.8;76.2
74431;BME280;62863;52.062;23.764;2023-12-28T05:06:43;1027.3;;;0.7;76.3
74431;BME280;62863;52.062;23.764;2023-12-28T05:12:03;1027.3;;;0.7;76.3
74431;BME280;62863;52.062;23.764;2023-12-28T05:17:21;1027.2;;;0.6;76.1
74431;BME280;62863;52.062;23.764;2023-12-28T05:21:37;1027.2;;;0.6;76.1
74431;BME280;62863;52.062;23.764;2023-12-28T05:26:37;1027.1;;;0.6;76.2
74431;BME280;62863;52.062;23.764;2023-12-28T05:31:39;1027.1;;;0.6;76.3
74431;BME280;62863;52.062;23.764;2023-12-28T05:37:07;1027.1;;;0.6;76.3
74431;BME280;62863;52.062;23.764;2023-12-28T05:41:45;1027;;;0.6;76.4
74431;BME280;62863;52.062;23.764;2023-12-28T05:46:57;1026.8;;;0.6;76.6
74431;BME280;62863;52.062;23.764;2023-12-28T05:52:21;1026.5;;;0.6;76.4
74431;BME280;62863;52.062;23.764;2023-12-28T05:56:53;1026.4;;;0.7;76.3
74431;BME280;62863;52.062;23.764;2023-12-28T06:01:42;1026.4;;;0.7;76.5
74431;BME280;62863;52.062;23.764;2023-12-28T06:07:19;1026.4;;;0.8;76.4
74431;BME280;62863;52.062;23.764;2023-12-28T06:12:03;1026.4;;;0.8;76.1
74431;BME280;62863;52.062;23.764;2023-12-28T06:16:37;1026.4;;;0.9;76
74431;BME280;62863;52.062;23.764;2023-12-28T06:21:37;1026.4;;;1;75.8
74431;BME280;62863;52.062;23.764;2023-12-28T06:27:07;1026.3;;;1.1;75.7
74431;BME280;62863;52.062;23.764;2023-12-28T06:31:55;1026.3;;;1.3;75.4
74431;BME280;62863;52.062;23.764;2023-12-28T06:36:55;1026.2;;;1.5;75.2
74431;BME280;62863;52.062;23.764;2023-12-28T06:42:17;1025.9;;;1.6;74.8
74431;BME280;62863;52.062;23.764;2023-12-28T06:47:05;1025.7;;;1.7;74.4
74431;BME280;62863;52.062;23.764;2023-12-28T06:51:37;1025.8;;;1.7;74.2
74431;BME280;62863;52.062;23.764;2023-12-28T06:56:37;1025.9;;;1.7;74.2
74431;BME280;62863;52.062;23.764;2023-12-28T07:01:55;1026;;;1.9;73.9
74431;BME280;62863;52.062;23.764;2023-12-28T07:06:37;1026;;;2;73.7
74431;BME280;62863;52.062;23.764;2023-12-28T07:12:21;1025.9;;;2.1;73.6
74431;BME280;62863;52.062;23.764;2023-12-28T07:16:45;1025.7;;;2.1;73.1
74431;BME280;62863;52.062;23.764;2023-12-28T07:22:07;1025.5;;;2.2;72.8
74431;BME280;62863;52.062;23.764;2023-12-28T07:27:19;1025.5;;;2.1;72.6
74431;BME280;62863;52.062;23.764;2023-12-28T07:31:39;1025.4;;;2.2;72.3
74431;BME280;62863;52.062;23.764;2023-12-28T07:36:49;1025.4;;;2.2;72.1
74431;BME280;62863;52.062;23.764;2023-12-28T07:41:47;1025.4;;;2.4;71.8
74431;BME280;62863;52.062;23.764;2023-12-28T07:47:19;1025.4;;;2.6;71.2
74431;BME280;62863;52.062;23.764;2023-12-28T07:52:19;1025.3;;;2.9;70.3
74431;BME280;62863;52.062;23.764;2023-12-28T07:56:55;1025.2;;;3.6;68.7
74431;BME280;62863;52.062;23.764;2023-12-28T08:02:21;1024.9;;;4.4;67.1
74431;BME280;62863;52.062;23.764;2023-12-28T08:06:37;1024.8;;;4.4;66.9
74431;BME280;62863;52.062;23.764;2023-12-28T08:12:21;1024.7;;;4.3;66.7
74431;BME280;62863;52.062;23.764;2023-12-28T08:17:09;1024.5;;;4.4;66
74431;BME280;62863;52.062;23.764;2023-12-28T08:22:19;1024.4;;;4.5;65.6
74431;BME280;62863;52.062;23.764;2023-12-28T08:26:57;1024.5;;;4.7;64.9
74431;BME280;62863;52.062;23.764;2023-12-28T08:31:39;1024.3;;;5;64.1
74431;BME280;62863;52.062;23.764;2023-12-28T08:37:21;1024.3;;;5.1;63.6
74431;BME280;62863;52.062;23.764;2023-12-28T08:41:37;1024.3;;;5.3;63
74431;BME280;62863;52.062;23.764;2023-12-28T08:46:37;1024.2;;;5.4;63
74431;BME280;62863;52.062;23.764;2023-12-28T08:51:57;1024.1;;;5.4;63
74431;BME280;62863;52.062;23.764;2023-12-28T08:57:21;1024;;;5.6;62.7
74431;BME280;62863;52.062;23.764;2023-12-28T09:01:39;1023.9;;;5.7;62.4
74431;BME280;62863;52.062;23.764;2023-12-28T09:07:09;1023.9;;;5.7;62.4
74431;BME280;62863;52.062;23.764;2023-12-28T09:11:43;1023.7;;;5.7;62.4
74431;BME280;62863;52.062;23.764;2023-12-28T09:16:44;1023.6;;;5.6;62.8
74431;BME280;62863;52.062;23.764;2023-12-28T09:22:03;1023.7;;;5.5;63
74431;BME280;62863;52.062;23.764;2023-12-28T09:26:55;1023.6;;;5.7;62.6
74431;BME280;62863;52.062;23.764;2023-12-28T09:32:07;1023.5;;;5.8;62.4
74431;BME280;62863;52.062;23.764;2023-12-28T09:36:39;1023.4;;;6;61.9
74431;BME280;62863;52.062;23.764;2023-12-28T09:42:21;1023.2;;;6.2;61.5
74431;BME280;62863;52.062;23.764;2023-12-28T09:46:49;1023;;;6.3;61.3
74431;BME280;62863;52.062;23.764;2023-12-28T09:51:59;1023.2;;;6.5;61.3
74431;BME280;62863;52.062;23.764;2023-12-28T09:56:57;1023;;;6.9;60.6
74431;BME280;62863;52.062;23.764;2023-12-28T10:01:55;1022.6;;;7.1;60.3
74431;BME280;62863;52.062;23.764;2023-12-28T10:06:45;1022.4;;;7.2;60.4
74431;BME280;62863;52.062;23.764;2023-12-28T10:11:37;1022.4;;;7.3;60.3
74431;BME280;62863;52.062;23.764;2023-12-28T10:17:17;1022.3;;;7.4;59.9
74431;BME280;62863;52.062;23.764;2023-12-28T10:21:55;1022.2;;;7.5;59.7
74431;BME280;62863;52.062;23.764;2023-12-28T10:26:49;1022.2;;;7.7;59.1
74431;BME280;62863;52.062;23.764;2023-12-28T10:32:19;1022.1;;;7.6;59
74431;BME280;62863;52.062;23.764;2023-12-28T10:36:45;1021.8;;;7.5;59.1
74431;BME280;62863;52.062;23.764;2023-12-28T10:42:22;1021.8;;;7.4;59.5
74431;BME280;62863;52.062;23.764;2023-12-28T10:47:10;1021.8;;;7.5;59.5
74431;BME280;62863;52.062;23.764;2023-12-28T10:52:05;1021.7;;;7.5;59.9
74431;BME280;62863;52.062;23.764;2023-12-28T10:56:46;1021.6;;;7.5;60
74431;BME280;62863;52.062;23.764;2023-12-28T11:02:00;1021.6;;;7.4;60.4
74431;BME280;62863;52.062;23.764;2023-12-28T11:07:19;1021.4;;;7.5;60.6
74431;BME280;62863;52.062;23.764;2023-12-28T11:12:07;1021.4;;;7.5;60.4
74431;BME280;62863;52.062;23.764;2023-12-28T11:16:37;1021.4;;;7.6;60.4
74431;BME280;62863;52.062;23.764;2023-12-28T11:22:07;1021.3;;;7.7;60.3
74431;BME280;62863;52.062;23.764;2023-12-28T11:26:57;1021.4;;;7.8;60.4
74431;BME280;62863;52.062;23.764;2023-12-28T11:31:37;1021.5;;;7.8;60.6
74431;BME280;62863;52.062;23.764;2023-12-28T11:36:39;1021.4;;;7.8;60.5
74431;BME280;62863;52.062;23.764;2023-12-28T11:42:00;1021.3;;;7.7;60.5
74431;BME280;62863;52.062;23.764;2023-12-28T11:46:55;1021.4;;;7.7;61
74431;BME280;62863;52.062;23.764;2023-12-28T11:52:09;1021.6;;;7.8;61
74431;BME280;62863;52.062;23.764;2023-12-28T11:57:09;1021.6;;;7.7;61.6
74431;BME280;62863;52.062;23.764;2023-12-28T12:01:55;1021.5;;;7.7;61.7
74431;BME280;62863;52.062;23.764;2023-12-28T12:07:07;1021.1;;;7.6;61.8
74431;BME280;62863;52.062;23.764;2023-12-28T12:12:19;1021;;;7.7;62
74431;BME280;62863;52.062;23.764;2023-12-28T12:17:17;1021;;;7.8;61.6
74431;BME280;62863;52.062;23.764;2023-12-28T12:22:17;1020.9;;;8;61.3
74431;BME280;62863;52.062;23.764;2023-12-28T12:27:05;1021;;;8.1;61
74431;BME280;62863;52.062;23.764;2023-12-28T12:31:46;1021;;;8;61.3
74431;BME280;62863;52.062;23.764;2023-12-28T12:36:47;1021.1;;;7.8;61.6
74431;BME280;62863;52.062;23.764;2023-12-28T12:42:17;1021;;;7.7;62.1
74431;BME280;62863;52.062;23.764;2023-12-28T12:47:17;1021;;;7.5;63.7
74431;BME280;62863;52.062;23.764;2023-12-28T12:52:03;1021;;;7.4;65
74431;BME280;62863;52.062;23.764;2023-12-28T12:56:59;1021.1;;;7.3;66.5
74431;BME280;62863;52.062;23.764;2023-12-28T13:02:22;1021;;;7.2;66.8
74431;BME280;62863;52.062;23.764;2023-12-28T13:06:37;1021;;;7.2;67
74431;BME280;62863;52.062;23.764;2023-12-28T13:11:37;1021.1;;;7.2;67.1
74431;BME280;62863;52.062;23.764;2023-12-28T13:16:47;1021.1;;;7.1;67.4
74431;BME280;62863;52.062;23.764;2023-12-28T13:22:19;1021;;;7.1;67.1
74431;BME280;62863;52.062;23.764;2023-12-28T13:27:03;1020.9;;;7.1;67
74431;BME280;62863;52.062;23.764;2023-12-28T13:32:07;1021;;;7.1;67
74431;BME280;62863;52.062;23.764;2023-12-28T13:36:55;1020.9;;;7.1;67
74431;BME280;62863;52.062;23.764;2023-12-28T13:41:55;1021;;;7.1;67
74431;BME280;62863;52.062;23.764;2023-12-28T13:47:17;1021;;;7.1;66.7
74431;BME280;62863;52.062;23.764;2023-12-28T13:51:43;1021;;;7.2;66.8
74431;BME280;62863;52.062;23.764;2023-12-28T13:56:45;1021;;;7.2;66.8
74431;BME280;62863;52.062;23.764;2023-12-28T14:01:43;1021;;;7.2;66.8
74431;BME280;62863;52.062;23.764;2023-12-28T14:07:17;1021;;;7.2;66.7
74431;BME280;62863;52.062;23.764;2023-12-28T14:11:53;1021;;;7.3;66.7
74431;BME280;62863;52.062;23.764;2023-12-28T14:16:45;1021;;;7.3;66.7
74431;BME280;62863;52.062;23.764;2023-12-28T14:22:03;1021;;;7.3;66.7
74431;BME280;62863;52.062;23.764;2023-12-28T14:26:55;1021.1;;;7.2;66.8
74431;BME280;62863;52.062;23.764;2023-12-28T14:32:03;1021.1;;;7.2;66.9
74431;BME280;62863;52.062;23.764;2023-12-28T14:37:07;1021.1;;;7.2;67
74431;BME280;62863;52.062;23.764;2023-12-28T14:42:17;1021.2;;;7.3;67.3
74431;BME280;62863;52.062;23.764;2023-12-28T14:46:45;1021.3;;;7.3;67.5
74431;BME280;62863;52.062;23.764;2023-12-28T14:51:43;1021.4;;;7.4;67.6
74431;BME280;62863;52.062;23.764;2023-12-28T14:57:19;1021.5;;;7.4;67.4
74431;BME280;62863;52.062;23.764;2023-12-28T15:02:05;1021.5;;;7.5;67.4
74431;BME280;62863;52.062;23.764;2023-12-28T15:06:43;1021.5;;;7.5;67.4
74431;BME280;62863;52.062;23.764;2023-12-28T15:11:43;1021.6;;;7.5;67.1
74431;BME280;62863;52.062;23.764;2023-12-28T15:17:05;1021.6;;;7.5;67
74431;BME280;62863;52.062;23.764;2023-12-28T15:22:09;1021.5;;;7.5;67.1
74431;BME280;62863;52.062;23.764;2023-12-28T15:26:37;1021.6;;;7.5;67.2
74431;BME280;62863;52.062;23.764;2023-12-28T15:32:21;1021.7;;;7.6;67.4
74431;BME280;62863;52.062;23.764;2023-12-28T15:36:51;1021.7;;;7.5;67.8
74431;BME280;62863;52.062;23.764;2023-12-28T15:41:37;1021.8;;;7.5;68.5
74431;BME280;62863;52.062;23.764;2023-12-28T15:46:55;1021.9;;;7.5;69
74431;BME280;62863;52.062;23.764;2023-12-28T15:51:37;1022;;;7.6;69.3
74431;BME280;62863;52.062;23.764;2023-12-28T15:56:51;1021.9;;;7.6;69.4
74431;BME280;62863;52.062;23.764;2023-12-28T16:01:45;1022;;;7.6;69.4
74431;BME280;62863;52.062;23.764;2023-12-28T16:07:11;1022;;;7.6;69.8
74431;BME280;62863;52.062;23.764;2023-12-28T16:11:39;1021.9;;;7.6;69.6
74431;BME280;62863;52.062;23.764;2023-12-28T16:16:39;1022;;;7.6;69.8
74431;BME280;62863;52.062;23.764;2023-12-28T16:21:47;1022;;;7.6;69.8
74431;BME280;62863;52.062;23.764;2023-12-28T16:26:57;1022;;;7.6;69.9
74431;BME280;62863;52.062;23.764;2023-12-28T16:31:43;1022;;;7.6;70
74431;BME280;62863;52.062;23.764;2023-12-28T16:37:19;1022;;;7.6;70.3
74431;BME280;62863;52.062;23.764;2023-12-28T16:42:21;1021.9;;;7.6;70.3
74431;BME280;62863;52.062;23.764;2023-12-28T16:47:17;1021.9;;;7.6;70.2
74431;BME280;62863;52.062;23.764;2023-12-28T16:52:21;1021.8;;;7.6;70.2
74431;BME280;62863;52.062;23.764;2023-12-28T16:56:37;1021.8;;;7.5;70.4
74431;BME280;62863;52.062;23.764;2023-12-28T17:01:37;1021.8;;;7.5;70.5
74431;BME280;62863;52.062;23.764;2023-12-28T17:07:11;1021.8;;;7.5;70.6
74431;BME280;62863;52.062;23.764;2023-12-28T17:12:22;1021.7;;;7.5;71.1
74431;BME280;62863;52.062;23.764;2023-12-28T17:16:55;1021.7;;;7.5;71.2
74431;BME280;62863;52.062;23.764;2023-12-28T17:22:09;1021.7;;;7.5;71.2
74431;BME280;62863;52.062;23.764;2023-12-28T17:27:23;1021.7;;;7.5;71.2
74431;BME280;62863;52.062;23.764;2023-12-28T17:31:59;1021.7;;;7.5;71
74431;BME280;62863;52.062;23.764;2023-12-28T17:36:37;1021.7;;;7.5;70.9
74431;BME280;62863;52.062;23.764;2023-12-28T17:41:57;1021.7;;;7.5;70.5
74431;BME280;62863;52.062;23.764;2023-12-28T17:47:23;1021.7;;;7.4;70.4
74431;BME280;62863;52.062;23.764;2023-12-28T17:51:54;1021.7;;;7.4;70.4
74431;BME280;62863;52.062;23.764;2023-12-28T17:57:19;1021.6;;;7.4;70.4
74431;BME280;62863;52.062;23.764;2023-12-28T18:02:11;1021.6;;;7.3;70.5
74431;BME280;62863;52.062;23.764;2023-12-28T18:06:37;1021.7;;;7.2;70.8
74431;BME280;62863;52.062;23.764;2023-12-28T18:12:21;1021.7;;;7.2;71
74431;BME280;62863;52.062;23.764;2023-12-28T18:16:37;1021.7;;;7.2;70.7
74431;BME280;62863;52.062;23.764;2023-12-28T18:21:55;1021.7;;;7.2;70.5
74431;BME280;62863;52.062;23.764;2023-12-28T18:26:54;1021.7;;;7.2;70.4
74431;BME280;62863;52.062;23.764;2023-12-28T18:32:19;1021.6;;;7.1;70.4
74431;BME280;62863;52.062;23.764;2023-12-28T18:36:37;1021.7;;;7.1;70.3
74431;BME280;62863;52.062;23.764;2023-12-28T18:41:37;1021.7;;;6.9;70.3
74431;BME280;62863;52.062;23.764;2023-12-28T18:46:55;1021.7;;;6.8;70.4
74431;BME280;62863;52.062;23.764;2023-12-28T18:51:57;1021.7;;;6.7;70.6
74431;BME280;62863;52.062;23.764;2023-12-28T18:56:43;1021.7;;;6.6;70.7
74431;BME280;62863;52.062;23.764;2023-12-28T19:01:59;1021.7;;;6.4;71.1
74431;BME280;62863;52.062;23.764;2023-12-28T19:07:19;1021.8;;;6.4;71.4
74431;BME280;62863;52.062;23.764;2023-12-28T19:11:55;1021.7;;;6.3;71.5
74431;BME280;62863;52.062;23.764;2023-12-28T19:16:46;1021.7;;;6.1;71.9
74431;BME280;62863;52.062;23.764;2023-12-28T19:22:17;1021.8;;;6;72.1
74431;BME280;62863;52.062;23.764;2023-12-28T19:27:05;1021.8;;;6.1;72
74431;BME280;62863;52.062;23.764;2023-12-28T19:31:43;1021.8;;;6.2;71.9
74431;BME280;62863;52.062;23.764;2023-12-28T19:36:37;1021.9;;;6.2;71.5
74431;BME280;62863;52.062;23.764;2023-12-28T19:41:55;1021.9;;;6.3;71.3
74431;BME280;62863;52.062;23.764;2023-12-28T19:47:07;1021.9;;;6.4;71.2
74431;BME280;62863;52.062;23.764;2023-12-28T19:52:07;1021.9;;;6.4;71
74431;BME280;62863;52.062;23.764;2023-12-28T19:57:17;1021.8;;;6.5;70.9
74431;BME280;62863;52.062;23.764;2023-12-28T20:01:51;1021.8;;;6.4;71
74431;BME280;62863;52.062;23.764;2023-12-28T20:06:46;1021.8;;;6.3;71.2
74431;BME280;62863;52.062;23.764;2023-12-28T20:11:37;1021.7;;;6.3;71.3
74431;BME280;62863;52.062;23.764;2023-12-28T20:16:57;1021.7;;;6.2;71.4
74431;BME280;62863;52.062;23.764;2023-12-28T20:21:37;1021.7;;;6.1;71.6
74431;BME280;62863;52.062;23.764;2023-12-28T20:26:53;1021.6;;;6;71.7
74431;BME280;62863;52.062;23.764;2023-12-28T20:31:59;1021.6;;;6;71.7
74431;BME280;62863;52.062;23.764;2023-12-28T20:37:05;1021.5;;;5.9;71.7
74431;BME280;62863;52.062;23.764;2023-12-28T20:42:17;1021.5;;;6;71.8
74431;BME280;62863;52.062;23.764;2023-12-28T20:46:39;1021.5;;;6;71.8
74431;BME280;62863;52.062;23.764;2023-12-28T20:51:38;1021.5;;;6;71.9
74431;BME280;62863;52.062;23.764;2023-12-28T20:56:45;1021.5;;;6.1;72.1
74431;BME280;62863;52.062;23.764;2023-12-28T21:02:19;1021.5;;;6.2;72
74431;BME280;62863;52.062;23.764;2023-12-28T21:07:19;1021.6;;;6.3;71.8
74431;BME280;62863;52.062;23.764;2023-12-28T21:12:17;1021.6;;;6.4;71.9
74431;BME280;62863;52.062;23.764;2023-12-28T21:17:17;1021.6;;;6.4;71.9
74431;BME280;62863;52.062;23.764;2023-12-28T21:22:03;1021.6;;;6.3;71.7
74431;BME280;62863;52.062;23.764;2023-12-28T21:27:05;1021.6;;;6.2;71.8
74431;BME280;62863;52.062;23.764;2023-12-28T21:31:39;1021.6;;;6.1;71.8
74431;BME280;62863;52.062;23.764;2023-12-28T21:37:07;1021.5;;;6;72
74431;BME280;62863;52.062;23.764;2023-12-28T21:41:47;1021.6;;;5.8;72.1
74431;BME280;62863;52.062;23.764;2023-12-28T21:46:55;1021.6;;;5.7;72.5
74431;BME280;62863;52.062;23.764;2023-12-28T21:52:19;1021.6;;;5.6;72.8
74431;BME280;62863;52.062;23.764;2023-12-28T21:56:55;1021.6;;;5.4;73.1
74431;BME280;62863;52.062;23.764;2023-12-28T22:01:37;1021.6;;;5.3;73.8
74431;BME280;62863;52.062;23.764;2023-12-28T22:06:47;1021.6;;;5.2;74.1
74431;BME280;62863;52.062;23.764;2023-12-28T22:12:19;1021.7;;;5.1;74.1
74431;BME280;62863;52.062;23.764;2023-12-28T22:17:01;1021.8;;;5;74.4
74431;BME280;62863;52.062;23.764;2023-12-28T22:22:07;1021.8;;;5;74.8
74431;BME280;62863;52.062;23.764;2023-12-28T22:26:49;1021.8;;;5;74.6
74431;BME280;62863;52.062;23.764;2023-12-28T22:31:59;1021.8;;;4.9;74.5
74431;BME280;62863;52.062;23.764;2023-12-28T22:37:19;1021.7;;;4.9;74.6
74431;BME280;62863;52.062;23.764;2023-12-28T22:41:45;1021.6;;;4.8;74.8
74431;BME280;62863;52.062;23.764;2023-12-28T22:46:51;1021.6;;;4.8;74.9
74431;BME280;62863;52.062;23.764;2023-12-28T22:51:39;1021.6;;;4.7;75
74431;BME280;62863;52.062;23.764;2023-12-28T22:57:17;1021.5;;;4.7;75.6
74431;BME280;62863;52.062;23.764;2023-12-28T23:01:45;1021.5;;;4.6;75.6
74431;BME280;62863;52.062;23.764;2023-12-28T23:06:43;1021.5;;;4.7;76
74431;BME280;62863;52.062;23.764;2023-12-28T23:12:03;1021.4;;;4.9;75.7
74431;BME280;62863;52.062;23.764;2023-12-28T23:16:37;1021.4;;;5;75.5
74431;BME280;62863;52.062;23.764;2023-12-28T23:21:37;1021.4;;;5.1;75.2
74431;BME280;62863;52.062;23.764;2023-12-28T23:26:52;1021.4;;;5.1;75
74431;BME280;62863;52.062;23.764;2023-12-28T23:31:57;1021.3;;;5.1;74.7
74431;BME280;62863;52.062;23.764;2023-12-28T23:36:45;1021.4;;;5;74.7
74431;BME280;62863;52.062;23.764;2023-12-28T23:41:45;1021.3;;;4.8;74.9
74431;BME280;62863;52.062;23.764;2023-12-28T23:47:21;1021.3;;;4.6;75.1
74431;BME280;62863;52.062;23.764;2023-12-28T23:51:52;1021.3;;;4.5;75.7
74431;BME280;62863;52.062;23.764;2023-12-28T23:56:37;1021.2;;;4.5;76.1
